sensor_id;sensor_type;location;lat;lon;timestamp;temperature;humidity
69776;DHT22;57049;51.450;-2.516;2023-02-19T00:01:19;8.85;96.86
69776;DHT22;57049;51.450;-2.516;2023-02-19T00:03:53;8.92;96.14
69776;DHT22;57049;51.450;-2.516;2023-02-19T00:06:20;8.92;95.70
69776;DHT22;57049;51.450;-2.516;2023-02-19T00:08:46;8.88;95.63
69776;DHT22;57049;51.450;-2.516;2023-02-19T00:11:14;8.88;95.39
69776;DHT22;57049;51.450;-2.516;2023-02-19T00:13:43;8.92;93.84
69776;DHT22;57049;51.450;-2.516;2023-02-19T00:18:36;8.96;93.00
69776;DHT22;57049;51.450;-2.516;2023-02-19T00:21:01;9.04;91.91
69776;DHT22;57049;51.450;-2.516;2023-02-19T00:23:27;9.00;92.00
69776;DHT22;57049;51.450;-2.516;2023-02-19T00:25:53;8.98;91.41
69776;DHT22;57049;51.450;-2.516;2023-02-19T00:28:19;9.05;90.73
69776;DHT22;57049;51.450;-2.516;2023-02-19T00:30:45;8.94;90.41
69776;DHT22;57049;51.450;-2.516;2023-02-19T00:33:10;8.85;91.05
69776;DHT22;57049;51.450;-2.516;2023-02-19T00:35:36;8.70;91.34
69776;DHT22;57049;51.450;-2.516;2023-02-19T00:38:01;8.64;91.38
69776;DHT22;57049;51.450;-2.516;2023-02-19T00:40:27;8.59;92.03
69776;DHT22;57049;51.450;-2.516;2023-02-19T00:42:52;8.47;92.38
69776;DHT22;57049;51.450;-2.516;2023-02-19T00:45:18;8.42;92.48
69776;DHT22;57049;51.450;-2.516;2023-02-19T00:47:43;8.36;92.74
69776;DHT22;57049;51.450;-2.516;2023-02-19T00:50:09;8.35;92.91
69776;DHT22;57049;51.450;-2.516;2023-02-19T00:52:34;8.42;93.05
69776;DHT22;57049;51.450;-2.516;2023-02-19T00:55:00;8.40;94.16
69776;DHT22;57049;51.450;-2.516;2023-02-19T00:57:26;8.40;94.38
69776;DHT22;57049;51.450;-2.516;2023-02-19T00:59:51;8.36;94.53
69776;DHT22;57049;51.450;-2.516;2023-02-19T01:02:17;8.40;94.69
69776;DHT22;57049;51.450;-2.516;2023-02-19T01:04:42;8.43;95.37
69776;DHT22;57049;51.450;-2.516;2023-02-19T01:07:08;8.47;95.70
69776;DHT22;57049;51.450;-2.516;2023-02-19T01:09:34;8.47;96.11
69776;DHT22;57049;51.450;-2.516;2023-02-19T01:11:59;8.45;96.51
69776;DHT22;57049;51.450;-2.516;2023-02-19T01:14:25;8.47;96.72
69776;DHT22;57049;51.450;-2.516;2023-02-19T01:16:50;8.47;96.94
69776;DHT22;57049;51.450;-2.516;2023-02-19T01:19:16;8.45;97.11
69776;DHT22;57049;51.450;-2.516;2023-02-19T01:21:41;8.40;97.14
69776;DHT22;57049;51.450;-2.516;2023-02-19T01:24:07;8.35;97.13
69776;DHT22;57049;51.450;-2.516;2023-02-19T01:26:33;8.33;97.30
69776;DHT22;57049;51.450;-2.516;2023-02-19T01:28:59;8.32;97.30
69776;DHT22;57049;51.450;-2.516;2023-02-19T01:31:25;8.22;97.36
69776;DHT22;57049;51.450;-2.516;2023-02-19T01:33:54;8.12;97.52
69776;DHT22;57049;51.450;-2.516;2023-02-19T01:36:20;8.05;97.49
69776;DHT22;57049;51.450;-2.516;2023-02-19T01:38:46;8.02;97.79
69776;DHT22;57049;51.450;-2.516;2023-02-19T01:41:18;7.92;97.77
69776;DHT22;57049;51.450;-2.516;2023-02-19T01:46:25;7.88;97.89
69776;DHT22;57049;51.450;-2.516;2023-02-19T01:48:51;7.86;97.99
69776;DHT22;57049;51.450;-2.516;2023-02-19T01:51:18;7.88;98.03
69776;DHT22;57049;51.450;-2.516;2023-02-19T01:53:48;7.91;97.94
69776;DHT22;57049;51.450;-2.516;2023-02-19T01:56:15;7.88;97.86
69776;DHT22;57049;51.450;-2.516;2023-02-19T01:58:42;7.92;97.87
69776;DHT22;57049;51.450;-2.516;2023-02-19T02:01:09;7.94;97.64
69776;DHT22;57049;51.450;-2.516;2023-02-19T02:03:36;7.86;97.69
69776;DHT22;57049;51.450;-2.516;2023-02-19T02:06:25;7.81;97.63
69776;DHT22;57049;51.450;-2.516;2023-02-19T02:08:55;7.78;97.58
69776;DHT22;57049;51.450;-2.516;2023-02-19T02:11:43;7.70;97.57
69776;DHT22;57049;51.450;-2.516;2023-02-19T02:14:09;7.68;97.63
69776;DHT22;57049;51.450;-2.516;2023-02-19T02:22:15;7.58;97.65
69776;DHT22;57049;51.450;-2.516;2023-02-19T02:27:52;7.65;97.60
69776;DHT22;57049;51.450;-2.516;2023-02-19T02:30:35;7.68;97.61
69776;DHT22;57049;51.450;-2.516;2023-02-19T02:33:18;7.75;97.51
69776;DHT22;57049;51.450;-2.516;2023-02-19T02:36:07;7.78;97.40
69776;DHT22;57049;51.450;-2.516;2023-02-19T02:38:38;7.79;97.22
69776;DHT22;57049;51.450;-2.516;2023-02-19T02:41:05;7.79;97.17
69776;DHT22;57049;51.450;-2.516;2023-02-19T02:43:31;7.78;97.15
69776;DHT22;57049;51.450;-2.516;2023-02-19T02:45:57;7.79;97.18
69776;DHT22;57049;51.450;-2.516;2023-02-19T02:48:36;7.91;97.06
69776;DHT22;57049;51.450;-2.516;2023-02-19T02:53:48;7.99;96.79
69776;DHT22;57049;51.450;-2.516;2023-02-19T02:56:34;7.98;96.84
69776;DHT22;57049;51.450;-2.516;2023-02-19T02:59:03;7.98;96.76
69776;DHT22;57049;51.450;-2.516;2023-02-19T03:01:32;8.01;96.73
69776;DHT22;57049;51.450;-2.516;2023-02-19T03:06:55;8.01;96.62
69776;DHT22;57049;51.450;-2.516;2023-02-19T03:09:32;7.99;96.82
69776;DHT22;57049;51.450;-2.516;2023-02-19T03:12:07;8.01;96.64
69776;DHT22;57049;51.450;-2.516;2023-02-19T03:14:57;8.03;96.53
69776;DHT22;57049;51.450;-2.516;2023-02-19T03:17:50;8.02;96.44
69776;DHT22;57049;51.450;-2.516;2023-02-19T03:20:39;8.02;96.55
69776;DHT22;57049;51.450;-2.516;2023-02-19T03:23:08;8.01;96.55
69776;DHT22;57049;51.450;-2.516;2023-02-19T03:25:35;7.98;96.66
69776;DHT22;57049;51.450;-2.516;2023-02-19T03:28:22;7.96;96.65
69776;DHT22;57049;51.450;-2.516;2023-02-19T03:31:12;8.07;96.48
69776;DHT22;57049;51.450;-2.516;2023-02-19T03:33:40;8.03;96.42
69776;DHT22;57049;51.450;-2.516;2023-02-19T03:36:09;8.01;96.42
69776;DHT22;57049;51.450;-2.516;2023-02-19T03:38:51;8.07;96.31
69776;DHT22;57049;51.450;-2.516;2023-02-19T03:44:06;8.12;95.56
69776;DHT22;57049;51.450;-2.516;2023-02-19T03:49:23;8.09;95.62
69776;DHT22;57049;51.450;-2.516;2023-02-19T03:54:34;8.07;95.54
69776;DHT22;57049;51.450;-2.516;2023-02-19T03:57:40;8.03;95.54
69776;DHT22;57049;51.450;-2.516;2023-02-19T04:00:08;7.95;95.72
69776;DHT22;57049;51.450;-2.516;2023-02-19T04:02:40;7.92;95.74
69776;DHT22;57049;51.450;-2.516;2023-02-19T04:05:18;7.88;95.81
69776;DHT22;57049;51.450;-2.516;2023-02-19T04:07:48;7.81;96.02
69776;DHT22;57049;51.450;-2.516;2023-02-19T04:10:15;7.78;96.26
69776;DHT22;57049;51.450;-2.516;2023-02-19T04:12:46;7.81;96.16
69776;DHT22;57049;51.450;-2.516;2023-02-19T04:15:16;7.79;96.17
69776;DHT22;57049;51.450;-2.516;2023-02-19T04:17:59;7.78;96.37
69776;DHT22;57049;51.450;-2.516;2023-02-19T04:20:29;7.77;96.32
69776;DHT22;57049;51.450;-2.516;2023-02-19T04:22:56;7.78;96.38
69776;DHT22;57049;51.450;-2.516;2023-02-19T04:25:22;7.77;96.45
69776;DHT22;57049;51.450;-2.516;2023-02-19T04:27:50;7.74;96.51
69776;DHT22;57049;51.450;-2.516;2023-02-19T04:30:16;7.77;96.49
69776;DHT22;57049;51.450;-2.516;2023-02-19T04:32:42;7.73;96.46
69776;DHT22;57049;51.450;-2.516;2023-02-19T04:35:07;7.65;96.67
69776;DHT22;57049;51.450;-2.516;2023-02-19T04:37:33;7.64;96.72
69776;DHT22;57049;51.450;-2.516;2023-02-19T04:39:59;7.60;96.80
69776;DHT22;57049;51.450;-2.516;2023-02-19T04:42:24;7.57;96.80
69776;DHT22;57049;51.450;-2.516;2023-02-19T04:44:49;7.60;96.86
69776;DHT22;57049;51.450;-2.516;2023-02-19T04:47:15;7.58;96.84
69776;DHT22;57049;51.450;-2.516;2023-02-19T04:49:44;7.64;96.94
69776;DHT22;57049;51.450;-2.516;2023-02-19T04:52:10;7.61;97.00
69776;DHT22;57049;51.450;-2.516;2023-02-19T04:54:35;7.57;97.17
69776;DHT22;57049;51.450;-2.516;2023-02-19T04:57:01;7.51;97.25
69776;DHT22;57049;51.450;-2.516;2023-02-19T04:59:27;7.55;97.33
69776;DHT22;57049;51.450;-2.516;2023-02-19T05:01:52;7.54;97.27
69776;DHT22;57049;51.450;-2.516;2023-02-19T05:04:18;7.50;97.25
69776;DHT22;57049;51.450;-2.516;2023-02-19T05:06:43;7.48;97.14
69776;DHT22;57049;51.450;-2.516;2023-02-19T05:09:09;7.43;97.29
69776;DHT22;57049;51.450;-2.516;2023-02-19T05:11:34;7.43;97.46
69776;DHT22;57049;51.450;-2.516;2023-02-19T05:14:00;7.33;97.63
69776;DHT22;57049;51.450;-2.516;2023-02-19T05:16:25;7.30;97.74
69776;DHT22;57049;51.450;-2.516;2023-02-19T05:18:51;7.28;97.78
69776;DHT22;57049;51.450;-2.516;2023-02-19T05:21:16;7.19;97.88
69776;DHT22;57049;51.450;-2.516;2023-02-19T05:23:42;7.20;97.90
69776;DHT22;57049;51.450;-2.516;2023-02-19T05:26:13;7.17;98.05
69776;DHT22;57049;51.450;-2.516;2023-02-19T05:28:41;7.20;98.05
69776;DHT22;57049;51.450;-2.516;2023-02-19T05:31:07;7.14;98.13
69776;DHT22;57049;51.450;-2.516;2023-02-19T05:33:33;7.12;98.21
69776;DHT22;57049;51.450;-2.516;2023-02-19T05:36:04;7.09;98.28
69776;DHT22;57049;51.450;-2.516;2023-02-19T05:38:30;7.03;98.16
69776;DHT22;57049;51.450;-2.516;2023-02-19T05:40:55;6.97;98.26
69776;DHT22;57049;51.450;-2.516;2023-02-19T05:43:30;6.88;98.31
69776;DHT22;57049;51.450;-2.516;2023-02-19T05:45:57;6.93;98.30
69776;DHT22;57049;51.450;-2.516;2023-02-19T05:48:23;6.86;98.34
69776;DHT22;57049;51.450;-2.516;2023-02-19T05:50:48;6.80;98.52
69776;DHT22;57049;51.450;-2.516;2023-02-19T05:53:13;6.86;98.67
69776;DHT22;57049;51.450;-2.516;2023-02-19T05:55:39;6.82;98.56
69776;DHT22;57049;51.450;-2.516;2023-02-19T05:58:04;6.80;98.58
69776;DHT22;57049;51.450;-2.516;2023-02-19T06:00:31;6.75;98.77
69776;DHT22;57049;51.450;-2.516;2023-02-19T06:02:57;6.71;98.71
69776;DHT22;57049;51.450;-2.516;2023-02-19T06:05:22;6.78;98.63
69776;DHT22;57049;51.450;-2.516;2023-02-19T06:07:48;6.73;98.73
69776;DHT22;57049;51.450;-2.516;2023-02-19T06:10:14;6.76;98.66
69776;DHT22;57049;51.450;-2.516;2023-02-19T06:12:40;6.68;98.78
69776;DHT22;57049;51.450;-2.516;2023-02-19T06:15:06;6.73;98.75
69776;DHT22;57049;51.450;-2.516;2023-02-19T06:17:32;6.75;98.70
69776;DHT22;57049;51.450;-2.516;2023-02-19T06:19:58;6.75;98.65
69776;DHT22;57049;51.450;-2.516;2023-02-19T06:22:24;6.76;98.59
69776;DHT22;57049;51.450;-2.516;2023-02-19T06:24:49;6.75;98.49
69776;DHT22;57049;51.450;-2.516;2023-02-19T06:27:15;6.71;98.65
69776;DHT22;57049;51.450;-2.516;2023-02-19T06:29:40;6.71;98.61
69776;DHT22;57049;51.450;-2.516;2023-02-19T06:32:06;6.67;98.68
69776;DHT22;57049;51.450;-2.516;2023-02-19T06:34:32;6.59;98.79
69776;DHT22;57049;51.450;-2.516;2023-02-19T06:36:58;6.67;98.74
69776;DHT22;57049;51.450;-2.516;2023-02-19T06:39:24;6.64;98.76
69776;DHT22;57049;51.450;-2.516;2023-02-19T06:41:50;6.65;98.73
69776;DHT22;57049;51.450;-2.516;2023-02-19T06:44:15;6.58;98.63
69776;DHT22;57049;51.450;-2.516;2023-02-19T06:46:41;6.53;98.69
69776;DHT22;57049;51.450;-2.516;2023-02-19T06:49:07;6.48;98.70
69776;DHT22;57049;51.450;-2.516;2023-02-19T06:51:32;6.41;98.71
69776;DHT22;57049;51.450;-2.516;2023-02-19T06:53:58;6.28;98.80
69776;DHT22;57049;51.450;-2.516;2023-02-19T06:56:29;6.22;98.98
69776;DHT22;57049;51.450;-2.516;2023-02-19T06:58:57;6.11;99.00
69776;DHT22;57049;51.450;-2.516;2023-02-19T07:01:27;6.04;99.16
69776;DHT22;57049;51.450;-2.516;2023-02-19T07:03:53;5.94;99.33
69776;DHT22;57049;51.450;-2.516;2023-02-19T07:06:22;5.83;99.36
69776;DHT22;57049;51.450;-2.516;2023-02-19T07:08:48;5.77;99.68
69776;DHT22;57049;51.450;-2.516;2023-02-19T07:11:14;5.77;99.80
69776;DHT22;57049;51.450;-2.516;2023-02-19T07:13:40;5.71;99.63
69776;DHT22;57049;51.450;-2.516;2023-02-19T07:16:08;5.66;99.45
69776;DHT22;57049;51.450;-2.516;2023-02-19T07:18:34;5.57;99.60
69776;DHT22;57049;51.450;-2.516;2023-02-19T07:21:07;5.50;99.63
69776;DHT22;57049;51.450;-2.516;2023-02-19T07:23:33;5.46;99.60
69776;DHT22;57049;51.450;-2.516;2023-02-19T07:25:58;5.47;99.75
69776;DHT22;57049;51.450;-2.516;2023-02-19T07:28:24;5.49;99.76
69776;DHT22;57049;51.450;-2.516;2023-02-19T07:30:49;5.63;99.88
69776;DHT22;57049;51.450;-2.516;2023-02-19T07:33:15;5.66;99.73
69776;DHT22;57049;51.450;-2.516;2023-02-19T07:35:45;5.65;99.71
69776;DHT22;57049;51.450;-2.516;2023-02-19T07:38:11;5.69;99.88
69776;DHT22;57049;51.450;-2.516;2023-02-19T07:40:36;5.67;99.91
69776;DHT22;57049;51.450;-2.516;2023-02-19T07:43:02;5.65;99.74
69776;DHT22;57049;51.450;-2.516;2023-02-19T07:45:27;5.65;99.75
69776;DHT22;57049;51.450;-2.516;2023-02-19T07:47:53;5.62;99.76
69776;DHT22;57049;51.450;-2.516;2023-02-19T07:50:18;5.67;99.87
69776;DHT22;57049;51.450;-2.516;2023-02-19T07:52:44;5.69;99.85
69776;DHT22;57049;51.450;-2.516;2023-02-19T07:55:09;5.74;99.73
69776;DHT22;57049;51.450;-2.516;2023-02-19T07:57:35;5.76;99.73
69776;DHT22;57049;51.450;-2.516;2023-02-19T08:00:00;5.87;99.70
69776;DHT22;57049;51.450;-2.516;2023-02-19T08:02:26;5.96;99.71
69776;DHT22;57049;51.450;-2.516;2023-02-19T08:05:10;6.08;99.71
69776;DHT22;57049;51.450;-2.516;2023-02-19T08:07:37;6.18;99.56
69776;DHT22;57049;51.450;-2.516;2023-02-19T08:10:03;6.34;99.38
69776;DHT22;57049;51.450;-2.516;2023-02-19T08:12:57;6.39;99.29
69776;DHT22;57049;51.450;-2.516;2023-02-19T08:15:42;6.48;99.24
69776;DHT22;57049;51.450;-2.516;2023-02-19T08:18:08;6.58;99.04
69776;DHT22;57049;51.450;-2.516;2023-02-19T08:20:34;6.62;99.03
69776;DHT22;57049;51.450;-2.516;2023-02-19T08:23:00;6.68;98.97
69776;DHT22;57049;51.450;-2.516;2023-02-19T08:25:25;6.75;98.99
69776;DHT22;57049;51.450;-2.516;2023-02-19T08:27:51;6.80;98.94
69776;DHT22;57049;51.450;-2.516;2023-02-19T08:30:16;6.86;98.81
69776;DHT22;57049;51.450;-2.516;2023-02-19T08:32:42;6.90;98.82
69776;DHT22;57049;51.450;-2.516;2023-02-19T08:35:07;6.97;98.98
69776;DHT22;57049;51.450;-2.516;2023-02-19T08:37:32;7.06;98.69
69776;DHT22;57049;51.450;-2.516;2023-02-19T08:39:58;7.16;98.45
69776;DHT22;57049;51.450;-2.516;2023-02-19T08:42:23;7.17;98.40
69776;DHT22;57049;51.450;-2.516;2023-02-19T08:44:49;7.26;98.43
69776;DHT22;57049;51.450;-2.516;2023-02-19T08:47:14;7.31;98.21
69776;DHT22;57049;51.450;-2.516;2023-02-19T08:49:40;7.41;98.22
69776;DHT22;57049;51.450;-2.516;2023-02-19T08:52:05;7.50;98.14
69776;DHT22;57049;51.450;-2.516;2023-02-19T08:54:31;7.55;98.17
69776;DHT22;57049;51.450;-2.516;2023-02-19T08:56:57;7.58;98.13
69776;DHT22;57049;51.450;-2.516;2023-02-19T08:59:22;7.58;98.16
69776;DHT22;57049;51.450;-2.516;2023-02-19T09:01:48;7.64;98.17
69776;DHT22;57049;51.450;-2.516;2023-02-19T09:04:13;7.67;97.99
69776;DHT22;57049;51.450;-2.516;2023-02-19T09:06:39;7.68;97.62
69776;DHT22;57049;51.450;-2.516;2023-02-19T09:09:04;7.78;97.68
69776;DHT22;57049;51.450;-2.516;2023-02-19T09:11:30;7.86;97.78
69776;DHT22;57049;51.450;-2.516;2023-02-19T09:13:55;7.99;97.48
69776;DHT22;57049;51.450;-2.516;2023-02-19T09:16:22;8.10;97.49
69776;DHT22;57049;51.450;-2.516;2023-02-19T09:18:47;8.21;97.15
69776;DHT22;57049;51.450;-2.516;2023-02-19T09:21:13;8.30;97.20
69776;DHT22;57049;51.450;-2.516;2023-02-19T09:23:38;8.40;96.47
69776;DHT22;57049;51.450;-2.516;2023-02-19T09:26:04;8.47;96.42
69776;DHT22;57049;51.450;-2.516;2023-02-19T09:28:32;8.56;95.95
69776;DHT22;57049;51.450;-2.516;2023-02-19T09:31:05;8.66;95.68
69776;DHT22;57049;51.450;-2.516;2023-02-19T09:33:30;8.71;95.82
69776;DHT22;57049;51.450;-2.516;2023-02-19T09:35:58;8.67;95.41
69776;DHT22;57049;51.450;-2.516;2023-02-19T09:38:25;8.76;94.94
69776;DHT22;57049;51.450;-2.516;2023-02-19T09:40:50;8.81;94.67
69776;DHT22;57049;51.450;-2.516;2023-02-19T09:43:19;8.76;94.25
69776;DHT22;57049;51.450;-2.516;2023-02-19T09:45:45;8.80;94.36
69776;DHT22;57049;51.450;-2.516;2023-02-19T09:48:12;8.85;93.94
69776;DHT22;57049;51.450;-2.516;2023-02-19T09:50:44;8.88;93.94
69776;DHT22;57049;51.450;-2.516;2023-02-19T09:53:17;8.90;93.89
69776;DHT22;57049;51.450;-2.516;2023-02-19T09:55:44;8.87;93.72
69776;DHT22;57049;51.450;-2.516;2023-02-19T09:58:30;8.81;93.61
69776;DHT22;57049;51.450;-2.516;2023-02-19T10:00:57;8.83;93.62
69776;DHT22;57049;51.450;-2.516;2023-02-19T10:03:30;8.70;93.66
69776;DHT22;57049;51.450;-2.516;2023-02-19T10:06:32;8.61;93.65
69776;DHT22;57049;51.450;-2.516;2023-02-19T10:08:54;8.52;93.99
69776;DHT22;57049;51.450;-2.516;2023-02-19T10:11:21;8.43;94.18
69776;DHT22;57049;51.450;-2.516;2023-02-19T10:13:54;8.40;94.56
69776;DHT22;57049;51.450;-2.516;2023-02-19T10:16:27;8.42;94.92
69776;DHT22;57049;51.450;-2.516;2023-02-19T10:18:53;8.52;95.08
69776;DHT22;57049;51.450;-2.516;2023-02-19T10:21:22;8.54;95.06
69776;DHT22;57049;51.450;-2.516;2023-02-19T10:23:58;8.54;94.67
69776;DHT22;57049;51.450;-2.516;2023-02-19T10:26:25;8.60;94.66
69776;DHT22;57049;51.450;-2.516;2023-02-19T10:28:52;8.67;94.77
69776;DHT22;57049;51.450;-2.516;2023-02-19T10:31:22;8.74;94.27
69776;DHT22;57049;51.450;-2.516;2023-02-19T10:33:56;8.77;93.95
69776;DHT22;57049;51.450;-2.516;2023-02-19T10:36:31;8.90;93.86
69776;DHT22;57049;51.450;-2.516;2023-02-19T10:38:58;8.88;93.45
69776;DHT22;57049;51.450;-2.516;2023-02-19T10:41:25;9.04;93.44
69776;DHT22;57049;51.450;-2.516;2023-02-19T10:44:06;9.14;92.96
69776;DHT22;57049;51.450;-2.516;2023-02-19T10:46:36;9.24;92.77
69776;DHT22;57049;51.450;-2.516;2023-02-19T10:51:48;9.35;91.48
69776;DHT22;57049;51.450;-2.516;2023-02-19T10:54:19;9.46;91.12
69776;DHT22;57049;51.450;-2.516;2023-02-19T10:56:48;9.58;90.85
69776;DHT22;57049;51.450;-2.516;2023-02-19T11:01:56;9.80;90.71
69776;DHT22;57049;51.450;-2.516;2023-02-19T11:04:23;9.89;90.05
69776;DHT22;57049;51.450;-2.516;2023-02-19T11:06:49;9.97;89.65
69776;DHT22;57049;51.450;-2.516;2023-02-19T11:09:25;9.94;88.93
69776;DHT22;57049;51.450;-2.516;2023-02-19T11:11:53;9.97;88.73
69776;DHT22;57049;51.450;-2.516;2023-02-19T11:14:21;10.00;88.93
69776;DHT22;57049;51.450;-2.516;2023-02-19T11:16:52;10.01;88.73
69776;DHT22;57049;51.450;-2.516;2023-02-19T11:19:36;9.96;88.69
69776;DHT22;57049;51.450;-2.516;2023-02-19T11:22:39;10.01;88.66
69776;DHT22;57049;51.450;-2.516;2023-02-19T11:27:31;10.01;87.89
69776;DHT22;57049;51.450;-2.516;2023-02-19T11:30:25;9.92;87.43
69776;DHT22;57049;51.450;-2.516;2023-02-19T11:32:56;9.99;88.12
69776;DHT22;57049;51.450;-2.516;2023-02-19T11:35:22;10.01;88.24
69776;DHT22;57049;51.450;-2.516;2023-02-19T11:40:21;10.09;86.98
69776;DHT22;57049;51.450;-2.516;2023-02-19T11:43:09;10.09;86.38
69776;DHT22;57049;51.450;-2.516;2023-02-19T11:45:45;10.23;87.44
69776;DHT22;57049;51.450;-2.516;2023-02-19T11:53:26;10.51;86.32
69776;DHT22;57049;51.450;-2.516;2023-02-19T11:56:15;10.54;85.34
69776;DHT22;57049;51.450;-2.516;2023-02-19T12:09:57;10.68;84.49
69776;DHT22;57049;51.450;-2.516;2023-02-19T12:12:56;10.72;84.43
69776;DHT22;57049;51.450;-2.516;2023-02-19T12:31:51;10.74;84.79
69776;DHT22;57049;51.450;-2.516;2023-02-19T12:45:55;10.82;85.13
69776;DHT22;57049;51.450;-2.516;2023-02-19T12:50:50;10.96;84.75
69776;DHT22;57049;51.450;-2.516;2023-02-19T12:53:55;11.08;84.38
69776;DHT22;57049;51.450;-2.516;2023-02-19T12:56:28;11.06;84.33
69776;DHT22;57049;51.450;-2.516;2023-02-19T12:58:59;11.13;83.85
69776;DHT22;57049;51.450;-2.516;2023-02-19T13:01:33;11.18;84.13
69776;DHT22;57049;51.450;-2.516;2023-02-19T13:04:17;11.19;83.73
69776;DHT22;57049;51.450;-2.516;2023-02-19T13:07:01;11.22;83.86
69776;DHT22;57049;51.450;-2.516;2023-02-19T13:09:40;11.26;83.83
69776;DHT22;57049;51.450;-2.516;2023-02-19T13:12:16;11.22;83.59
69776;DHT22;57049;51.450;-2.516;2023-02-19T13:14:47;11.27;84.25
69776;DHT22;57049;51.450;-2.516;2023-02-19T13:17:22;11.37;84.30
69776;DHT22;57049;51.450;-2.516;2023-02-19T13:20:03;11.42;83.57
69776;DHT22;57049;51.450;-2.516;2023-02-19T13:22:38;11.40;83.73
69776;DHT22;57049;51.450;-2.516;2023-02-19T13:25:38;11.49;83.20
69776;DHT22;57049;51.450;-2.516;2023-02-19T13:34:00;11.50;80.69
69776;DHT22;57049;51.450;-2.516;2023-02-19T13:36:29;11.64;79.61
69776;DHT22;57049;51.450;-2.516;2023-02-19T13:38:56;11.74;79.69
69776;DHT22;57049;51.450;-2.516;2023-02-19T13:41:29;11.73;79.61
69776;DHT22;57049;51.450;-2.516;2023-02-19T13:44:01;11.76;79.55
69776;DHT22;57049;51.450;-2.516;2023-02-19T13:46:39;11.76;79.35
69776;DHT22;57049;51.450;-2.516;2023-02-19T13:49:38;11.81;79.56
69776;DHT22;57049;51.450;-2.516;2023-02-19T14:00:58;11.69;81.85
69776;DHT22;57049;51.450;-2.516;2023-02-19T14:04:06;11.52;81.65
69776;DHT22;57049;51.450;-2.516;2023-02-19T14:12:21;11.11;83.50
69776;DHT22;57049;51.450;-2.516;2023-02-19T14:14:53;11.18;83.17
69776;DHT22;57049;51.450;-2.516;2023-02-19T14:27:51;10.92;84.52
69776;DHT22;57049;51.450;-2.516;2023-02-19T14:30:18;10.92;84.23
69776;DHT22;57049;51.450;-2.516;2023-02-19T14:32:45;11.01;84.23
69776;DHT22;57049;51.450;-2.516;2023-02-19T14:35:22;11.18;83.85
69776;DHT22;57049;51.450;-2.516;2023-02-19T14:37:50;11.16;83.87
69776;DHT22;57049;51.450;-2.516;2023-02-19T14:40:21;11.18;83.48
69776;DHT22;57049;51.450;-2.516;2023-02-19T14:42:50;11.13;83.05
69776;DHT22;57049;51.450;-2.516;2023-02-19T14:45:18;11.11;83.39
69776;DHT22;57049;51.450;-2.516;2023-02-19T14:47:45;11.13;83.32
69776;DHT22;57049;51.450;-2.516;2023-02-19T14:50:17;11.12;83.50
69776;DHT22;57049;51.450;-2.516;2023-02-19T14:52:48;11.15;82.98
69776;DHT22;57049;51.450;-2.516;2023-02-19T14:57:51;10.92;83.14
69776;DHT22;57049;51.450;-2.516;2023-02-19T15:00:29;10.82;83.87
69776;DHT22;57049;51.450;-2.516;2023-02-19T15:02:56;10.74;84.16
69776;DHT22;57049;51.450;-2.516;2023-02-19T15:05:35;10.69;83.97
69776;DHT22;57049;51.450;-2.516;2023-02-19T15:08:08;10.69;84.18
69776;DHT22;57049;51.450;-2.516;2023-02-19T15:10:35;10.84;84.16
69776;DHT22;57049;51.450;-2.516;2023-02-19T15:13:05;10.96;83.92
69776;DHT22;57049;51.450;-2.516;2023-02-19T15:15:35;11.05;83.71
69776;DHT22;57049;51.450;-2.516;2023-02-19T15:18:04;11.08;83.59
69776;DHT22;57049;51.450;-2.516;2023-02-19T15:20:31;10.88;83.46
69776;DHT22;57049;51.450;-2.516;2023-02-19T15:22:58;10.96;84.04
69776;DHT22;57049;51.450;-2.516;2023-02-19T15:25:31;10.82;83.53
69776;DHT22;57049;51.450;-2.516;2023-02-19T15:33:24;10.78;84.20
69776;DHT22;57049;51.450;-2.516;2023-02-19T15:35:59;10.84;83.64
69776;DHT22;57049;51.450;-2.516;2023-02-19T15:38:25;10.65;83.71
69776;DHT22;57049;51.450;-2.516;2023-02-19T15:40:52;10.51;84.46
69776;DHT22;57049;51.450;-2.516;2023-02-19T15:43:44;10.51;84.39
69776;DHT22;57049;51.450;-2.516;2023-02-19T15:46:18;10.29;84.43
69776;DHT22;57049;51.450;-2.516;2023-02-19T15:51:17;10.11;84.79
69776;DHT22;57049;51.450;-2.516;2023-02-19T15:53:55;10.06;85.01
69776;DHT22;57049;51.450;-2.516;2023-02-19T15:56:26;9.96;85.24
69776;DHT22;57049;51.450;-2.516;2023-02-19T15:59:05;9.86;85.71
69776;DHT22;57049;51.450;-2.516;2023-02-19T16:01:36;9.82;86.04
69776;DHT22;57049;51.450;-2.516;2023-02-19T16:04:02;9.80;85.90
69776;DHT22;57049;51.450;-2.516;2023-02-19T16:06:28;9.72;85.94
69776;DHT22;57049;51.450;-2.516;2023-02-19T16:12:20;9.63;86.12
69776;DHT22;57049;51.450;-2.516;2023-02-19T16:14:46;9.50;86.60
69776;DHT22;57049;51.450;-2.516;2023-02-19T16:17:17;9.52;86.85
69776;DHT22;57049;51.450;-2.516;2023-02-19T16:19:50;9.55;86.81
69776;DHT22;57049;51.450;-2.516;2023-02-19T16:22:19;9.53;86.78
69776;DHT22;57049;51.450;-2.516;2023-02-19T16:24:50;9.43;86.54
69776;DHT22;57049;51.450;-2.516;2023-02-19T16:29:55;9.35;86.55
69776;DHT22;57049;51.450;-2.516;2023-02-19T16:32:21;9.32;87.19
69776;DHT22;57049;51.450;-2.516;2023-02-19T16:34:49;9.38;87.31
69776;DHT22;57049;51.450;-2.516;2023-02-19T16:37:37;9.27;87.19
69776;DHT22;57049;51.450;-2.516;2023-02-19T16:42:37;9.22;87.42
69776;DHT22;57049;51.450;-2.516;2023-02-19T16:45:21;9.17;87.38
69776;DHT22;57049;51.450;-2.516;2023-02-19T16:47:48;9.11;87.18
69776;DHT22;57049;51.450;-2.516;2023-02-19T16:50:22;9.10;87.57
69776;DHT22;57049;51.450;-2.516;2023-02-19T16:52:56;8.98;87.67
69776;DHT22;57049;51.450;-2.516;2023-02-19T16:55:23;8.98;87.95
69776;DHT22;57049;51.450;-2.516;2023-02-19T16:57:49;9.04;88.14
69776;DHT22;57049;51.450;-2.516;2023-02-19T17:00:20;9.12;87.97
69776;DHT22;57049;51.450;-2.516;2023-02-19T17:02:48;9.10;88.00
69776;DHT22;57049;51.450;-2.516;2023-02-19T17:05:15;9.10;87.96
69776;DHT22;57049;51.450;-2.516;2023-02-19T17:07:40;9.15;88.05
69776;DHT22;57049;51.450;-2.516;2023-02-19T17:10:06;9.15;88.40
69776;DHT22;57049;51.450;-2.516;2023-02-19T17:12:32;9.05;88.42
69776;DHT22;57049;51.450;-2.516;2023-02-19T17:14:57;9.10;88.62
69776;DHT22;57049;51.450;-2.516;2023-02-19T17:17:23;9.08;88.48
69776;DHT22;57049;51.450;-2.516;2023-02-19T17:19:48;9.05;88.71
69776;DHT22;57049;51.450;-2.516;2023-02-19T17:22:14;9.00;89.08
69776;DHT22;57049;51.450;-2.516;2023-02-19T17:24:42;9.00;89.34
69776;DHT22;57049;51.450;-2.516;2023-02-19T17:27:11;8.98;89.48
69776;DHT22;57049;51.450;-2.516;2023-02-19T17:29:37;9.05;89.69
69776;DHT22;57049;51.450;-2.516;2023-02-19T17:32:03;9.10;89.59
69776;DHT22;57049;51.450;-2.516;2023-02-19T17:34:29;9.04;89.46
69776;DHT22;57049;51.450;-2.516;2023-02-19T17:36:54;8.98;89.58
69776;DHT22;57049;51.450;-2.516;2023-02-19T17:39:20;9.00;89.52
69776;DHT22;57049;51.450;-2.516;2023-02-19T17:41:48;8.92;88.94
69776;DHT22;57049;51.450;-2.516;2023-02-19T17:44:13;8.90;89.39
69776;DHT22;57049;51.450;-2.516;2023-02-19T17:46:39;8.77;89.03
69776;DHT22;57049;51.450;-2.516;2023-02-19T17:49:05;8.83;89.32
69776;DHT22;57049;51.450;-2.516;2023-02-19T17:51:32;8.85;89.40
69776;DHT22;57049;51.450;-2.516;2023-02-19T17:53:59;8.83;89.61
69776;DHT22;57049;51.450;-2.516;2023-02-19T17:56:25;8.73;89.65
69776;DHT22;57049;51.450;-2.516;2023-02-19T17:58:51;8.74;89.66